createdAt,value
2024-01-30T00:00:38.251Z,100422.34
2024-01-30T00:03:05.189Z,100430.16
2024-01-30T00:05:31.865Z,100424.97
2024-01-30T00:07:58.633Z,100425.81
2024-01-30T00:10:25.438Z,100430.16
2024-01-30T00:12:52.277Z,100425.81
2024-01-30T00:15:19.488Z,100412.00
2024-01-30T00:17:46.187Z,100401.63
2024-01-30T00:20:12.936Z,100399.03
2024-01-30T00:22:41.024Z,100394.72
2024-01-30T00:25:10.809Z,100400.78
2024-01-30T00:27:37.469Z,100389.53
2024-01-30T00:30:04.653Z,100394.72
2024-01-30T00:32:31.315Z,100399.06
2024-01-30T00:34:58.207Z,100401.66
2024-01-30T00:37:26.271Z,100407.69
2024-01-30T00:39:53.067Z,100410.28
2024-01-30T00:42:20.964Z,100405.97
2024-01-30T00:44:47.582Z,100395.59
2024-01-30T00:47:14.273Z,100401.63
2024-01-30T00:49:41.340Z,100400.81
2024-01-30T00:52:10.212Z,100406.84
2024-01-30T00:54:36.983Z,100405.97
2024-01-30T00:57:04.065Z,100404.25
2024-01-30T00:59:30.719Z,100405.09
2024-01-30T01:01:57.485Z,100399.91
2024-01-30T01:04:25.526Z,100396.47
2024-01-30T01:06:52.318Z,100397.31
2024-01-30T01:09:19.984Z,100395.59
2024-01-30T01:11:47.406Z,100393.00
2024-01-30T01:14:15.007Z,100409.44
2024-01-30T01:16:42.661Z,100413.75
2024-01-30T01:19:09.829Z,100415.47
2024-01-30T01:21:37.693Z,100412.03
2024-01-30T01:24:05.936Z,100405.13
2024-01-30T01:26:33.544Z,100406.84
2024-01-30T01:29:00.900Z,100406.84
2024-01-30T01:31:31.186Z,100405.13
2024-01-30T01:33:58.879Z,100406.84
2024-01-30T01:36:26.379Z,100413.75
2024-01-30T01:38:53.747Z,100416.34
2024-01-30T01:41:21.353Z,100407.69
2024-01-30T01:43:48.790Z,100405.97
2024-01-30T01:46:19.218Z,100405.97
2024-01-30T01:48:48.669Z,100405.09
2024-01-30T01:51:17.465Z,100403.38
2024-01-30T01:53:44.342Z,100415.44
2024-01-30T01:56:11.357Z,100404.22
2024-01-30T01:58:38.613Z,100408.56
2024-01-30T02:01:06.138Z,100408.56
2024-01-30T02:03:33.186Z,100410.28
2024-01-30T02:06:00.026Z,100410.28
2024-01-30T02:08:27.719Z,100425.84
2024-01-30T02:10:55.944Z,100417.16
2024-01-30T02:13:23.311Z,100415.47
2024-01-30T02:15:52.834Z,100414.59
2024-01-30T02:18:22.718Z,100411.13
2024-01-30T02:20:49.677Z,100410.28
2024-01-30T02:23:17.433Z,100414.59
2024-01-30T02:25:45.926Z,100408.53
2024-01-30T02:28:13.720Z,100415.44
2024-01-30T02:30:42.555Z,100418.03
2024-01-30T02:33:09.248Z,100422.34
2024-01-30T02:35:36.388Z,100423.19
2024-01-30T02:38:03.140Z,100425.78
2024-01-30T02:40:31.369Z,100420.59
2024-01-30T02:43:00.632Z,100421.47
2024-01-30T02:45:27.280Z,100413.69
2024-01-30T02:47:53.971Z,100424.06
2024-01-30T02:50:20.862Z,100418.88
2024-01-30T02:52:47.621Z,100418.88
2024-01-30T02:55:14.422Z,100411.94
2024-01-30T02:57:41.249Z,100426.66
2024-01-30T03:00:10.566Z,100419.72
2024-01-30T03:02:38.008Z,100414.56
2024-01-30T03:05:05.892Z,100413.69
2024-01-30T03:07:32.861Z,100412.81
2024-01-30T03:09:59.529Z,100409.34
2024-01-30T03:12:26.317Z,100411.09
2024-01-30T03:14:53.669Z,100422.25
2024-01-30T03:17:20.252Z,100423.13
2024-01-30T03:19:46.946Z,100415.38
2024-01-30T03:22:14.102Z,100420.53
2024-01-30T03:24:40.784Z,100417.94
2024-01-30T03:27:07.477Z,100423.97
2024-01-30T03:29:34.291Z,100418.78
2024-01-30T03:32:00.897Z,100416.19
2024-01-30T03:34:27.624Z,100413.63
2024-01-30T03:36:54.746Z,100413.63
2024-01-30T03:39:21.371Z,100417.03
2024-01-30T03:41:47.967Z,100422.22
2024-01-30T03:44:14.585Z,100420.50
2024-01-30T03:46:42.483Z,100419.63
2024-01-30T03:49:09.272Z,100417.03
2024-01-30T03:51:38.596Z,100415.25
2024-01-30T03:54:06.601Z,100429.94
2024-01-30T03:56:33.472Z,100435.13
2024-01-30T03:59:01.810Z,100430.81
2024-01-30T04:01:28.566Z,100429.91
2024-01-30T04:03:55.383Z,100439.41
2024-01-30T04:06:22.083Z,100442.84
2024-01-30T04:08:48.663Z,100443.72
2024-01-30T04:11:15.279Z,100448.00
2024-01-30T04:13:44.438Z,100441.13
2024-01-30T04:16:21.573Z,100444.56
2024-01-30T04:18:48.246Z,100449.72
2024-01-30T04:21:14.910Z,100447.13
2024-01-30T04:23:42.597Z,100448.84
2024-01-30T04:26:09.387Z,100455.75
2024-01-30T04:28:36.124Z,100457.47
2024-01-30T04:31:02.876Z,100454.88
2024-01-30T04:33:29.591Z,100466.97
2024-01-30T04:35:57.672Z,100469.56
2024-01-30T04:38:24.701Z,100500.63
2024-01-30T04:40:51.362Z,100508.38
2024-01-30T04:43:20.381Z,100503.97
2024-01-30T04:45:48.648Z,100509.94
2024-01-30T04:48:15.393Z,100513.28
2024-01-30T04:50:42.004Z,100520.06
2024-01-30T04:53:09.096Z,100527.75
2024-01-30T04:55:36.981Z,100535.31
2024-01-30T04:58:03.817Z,100540.41
2024-01-30T05:00:30.545Z,100537.66
2024-01-30T05:02:57.375Z,100540.28
2024-01-30T05:05:24.130Z,100544.44
2024-01-30T05:07:50.763Z,100548.75
2024-01-30T05:10:17.491Z,100558.16
2024-01-30T05:12:44.245Z,100558.06
2024-01-30T05:15:10.978Z,100560.66
2024-01-30T05:17:37.698Z,100581.16
2024-01-30T05:20:06.138Z,100579.47
2024-01-30T05:22:32.937Z,100587.22
2024-01-30T05:24:59.629Z,100591.38
2024-01-30T05:27:26.270Z,100600.69
2024-01-30T05:29:52.936Z,100603.28
2024-01-30T05:32:19.642Z,100605.84
2024-01-30T05:34:47.683Z,100610.16
2024-01-30T05:37:18.227Z,100609.94
2024-01-30T05:39:44.967Z,100616.84
2024-01-30T05:42:11.576Z,100631.47
2024-01-30T05:44:38.241Z,100630.44
2024-01-30T05:47:04.913Z,100638.22
2024-01-30T05:49:31.560Z,100639.94
2024-01-30T05:51:58.216Z,100641.53
2024-01-30T05:54:24.886Z,100646.81
2024-01-30T05:56:51.720Z,100652.84
2024-01-30T05:59:18.336Z,100653.56
2024-01-30T06:01:49.004Z,100666.56
2024-01-30T06:04:16.329Z,100668.25
2024-01-30T06:06:43.230Z,100674.91
2024-01-30T06:09:10.890Z,100686.97
2024-01-30T06:11:37.585Z,100685.09
2024-01-30T06:14:04.391Z,100690.06
2024-01-30T06:16:31.196Z,100694.09
2024-01-30T06:18:58.042Z,100707.97
2024-01-30T06:21:25.149Z,100714.53
2024-01-30T06:23:51.811Z,100722.44
2024-01-30T06:26:18.600Z,100728.22
2024-01-30T06:28:45.616Z,100724.03
2024-01-30T06:31:12.279Z,100740.25
2024-01-30T06:33:39.087Z,100742.69
2024-01-30T06:36:05.921Z,100743.47
2024-01-30T06:38:32.483Z,100751.13
2024-01-30T06:40:59.236Z,100747.38
2024-01-30T06:43:25.971Z,100765.56
2024-01-30T06:45:53.137Z,100776.56
2024-01-30T06:48:19.939Z,100780.03
2024-01-30T06:50:47.325Z,100776.66
2024-01-30T06:53:14.007Z,100779.97
2024-01-30T06:55:40.753Z,100785.13
2024-01-30T06:58:07.536Z,100795.31
2024-01-30T07:00:34.203Z,100792.69
2024-01-30T07:03:00.881Z,100809.69
2024-01-30T07:05:28.766Z,100813.28
2024-01-30T07:07:55.582Z,100808.88
2024-01-30T07:10:22.880Z,100819.28
2024-01-30T07:12:49.600Z,100811.31
2024-01-30T07:15:19.243Z,100815.03
2024-01-30T07:17:45.912Z,100818.72
2024-01-30T07:20:16.332Z,100819.59
2024-01-30T07:22:45.296Z,100831.59
2024-01-30T07:25:12.234Z,100833.13
2024-01-30T07:27:39.033Z,100833.19
2024-01-30T07:30:06.792Z,100845.81
2024-01-30T07:32:33.538Z,100861.50
2024-01-30T07:35:07.657Z,100852.91
2024-01-30T07:37:36.375Z,100864.47
2024-01-30T07:40:04.332Z,100875.84
2024-01-30T07:42:32.554Z,100881.16
2024-01-30T07:44:59.251Z,100890.66
2024-01-30T07:47:26.072Z,100900.97
2024-01-30T07:49:52.975Z,100897.16
2024-01-30T07:52:19.887Z,100905.91
2024-01-30T07:54:46.738Z,100906.25
2024-01-30T07:57:13.420Z,100903.81
2024-01-30T07:59:40.117Z,100917.66
2024-01-30T08:02:10.153Z,100917.75
2024-01-30T08:04:38.610Z,100933.13
2024-01-30T08:07:05.409Z,100934.13
2024-01-30T08:09:32.258Z,100944.47
2024-01-30T08:11:58.968Z,100955.50
2024-01-30T08:14:27.040Z,100964.19
2024-01-30T08:16:53.658Z,100960.63
2024-01-30T08:19:23.770Z,100958.81
2024-01-30T08:21:50.694Z,100968.22
2024-01-30T08:24:17.427Z,100983.84
2024-01-30T08:26:44.271Z,100980.31
2024-01-30T08:29:11.682Z,100994.91
2024-01-30T08:31:39.776Z,100994.88
2024-01-30T08:34:07.148Z,101000.00
2024-01-30T08:36:33.888Z,101005.06
2024-01-30T08:39:02.960Z,101012.88
2024-01-30T08:41:31.832Z,101016.19
2024-01-30T08:43:58.609Z,101023.25
2024-01-30T08:46:25.424Z,101032.78
2024-01-30T08:48:52.317Z,101037.75
2024-01-30T08:51:19.097Z,101045.69
2024-01-30T08:53:47.123Z,101049.19
2024-01-30T08:56:15.176Z,101050.81
2024-01-30T08:58:41.824Z,101051.50
2024-01-30T09:01:08.548Z,101058.56
2024-01-30T09:03:35.341Z,101063.66
2024-01-30T09:06:02.164Z,101071.22
2024-01-30T09:08:29.023Z,101065.56
2024-01-30T09:10:56.233Z,101081.22
2024-01-30T09:13:24.407Z,101082.13
2024-01-30T09:15:51.077Z,101089.19
2024-01-30T09:18:17.853Z,101099.66
2024-01-30T09:20:46.581Z,101096.09
2024-01-30T09:23:13.187Z,101105.25
2024-01-30T09:25:40.119Z,101107.00
2024-01-30T09:28:07.208Z,101116.56
2024-01-30T09:30:33.885Z,101113.00
2024-01-30T09:33:00.665Z,101121.69
2024-01-30T09:35:30.451Z,101137.25
2024-01-30T09:37:58.252Z,101139.69
2024-01-30T09:40:25.652Z,101138.50
2024-01-30T09:42:52.632Z,101144.75
2024-01-30T09:45:21.305Z,101154.91
2024-01-30T09:47:49.356Z,101146.25
2024-01-30T09:50:18.706Z,101152.28
2024-01-30T09:52:46.634Z,101159.25
2024-01-30T09:55:13.714Z,101161.66
2024-01-30T09:57:40.649Z,101169.56
2024-01-30T10:00:10.019Z,101166.19
2024-01-30T10:02:37.308Z,101162.78
2024-01-30T10:05:04.503Z,101174.75
2024-01-30T10:07:32.578Z,101187.63
2024-01-30T10:09:59.373Z,101197.06
2024-01-30T10:12:27.617Z,101196.09
2024-01-30T10:14:57.734Z,101199.88
2024-01-30T10:17:32.705Z,101191.31
2024-01-30T10:20:01.560Z,101206.88
2024-01-30T10:22:29.083Z,101208.44
2024-01-30T10:24:57.696Z,101216.00
2024-01-30T10:27:28.182Z,101228.94
2024-01-30T10:29:54.906Z,101233.19
2024-01-30T10:32:23.139Z,101237.66
2024-01-30T10:34:50.208Z,101233.50
2024-01-30T10:37:20.261Z,101245.72
2024-01-30T10:39:47.638Z,101250.91
2024-01-30T10:42:16.876Z,101252.66
2024-01-30T10:47:28.776Z,101266.25
2024-01-30T10:49:56.743Z,101278.41
2024-01-30T10:52:27.090Z,101290.44
2024-01-30T10:54:55.201Z,101283.34
2024-01-30T10:57:26.665Z,101295.66
2024-01-30T10:59:58.043Z,101299.28
2024-01-30T11:02:26.413Z,101295.09
2024-01-30T11:04:59.281Z,101301.84
2024-01-30T11:07:29.691Z,101312.28
2024-01-30T11:10:05.221Z,101319.22
2024-01-30T11:12:34.680Z,101324.25
2024-01-30T11:15:06.607Z,101320.78
2024-01-30T11:22:57.232Z,101333.97
2024-01-30T11:25:25.104Z,101331.38
2024-01-30T11:27:54.652Z,101346.00
2024-01-30T11:35:48.803Z,101348.22
2024-01-30T11:38:17.117Z,101347.50
2024-01-30T11:40:48.515Z,101351.19
2024-01-30T11:43:15.303Z,101359.22
2024-01-30T11:45:42.062Z,101368.91
2024-01-30T11:48:11.940Z,101368.13
2024-01-30T11:50:39.899Z,101367.00
2024-01-30T11:53:08.205Z,101375.69
2024-01-30T11:55:36.895Z,101369.63
2024-01-30T11:58:04.088Z,101376.44
2024-01-30T12:00:32.473Z,101377.28
2024-01-30T12:03:01.793Z,101374.66
2024-01-30T12:05:29.492Z,101377.22
2024-01-30T12:07:57.021Z,101384.69
2024-01-30T12:10:23.759Z,101384.78
2024-01-30T12:12:52.901Z,101386.66
2024-01-30T12:15:20.174Z,101396.31
2024-01-30T12:17:46.856Z,101393.91
2024-01-30T12:20:16.123Z,101400.84
2024-01-30T12:22:46.419Z,101407.66
2024-01-30T12:27:53.132Z,101409.44
2024-01-30T12:30:23.214Z,101400.06
2024-01-30T12:32:52.811Z,101395.81
2024-01-30T12:35:22.055Z,101398.44
2024-01-30T12:37:49.919Z,101401.88
2024-01-30T12:40:17.175Z,101405.44
2024-01-30T12:42:47.149Z,101411.28
2024-01-30T12:45:15.845Z,101416.69
2024-01-30T12:47:43.228Z,101423.75
2024-01-30T12:50:13.641Z,101427.91
2024-01-30T12:52:41.637Z,101426.75
2024-01-30T12:55:08.328Z,101435.38
2024-01-30T12:57:36.506Z,101437.84
2024-01-30T13:00:04.250Z,101437.06
2024-01-30T13:02:36.123Z,101437.84
2024-01-30T13:05:04.027Z,101446.53
2024-01-30T13:07:30.752Z,101444.06
2024-01-30T13:10:05.051Z,101458.84
2024-01-30T13:12:33.786Z,101458.91
2024-01-30T13:15:02.639Z,101463.34
2024-01-30T13:17:29.796Z,101466.81
2024-01-30T13:19:59.820Z,101463.34
2024-01-30T13:22:29.518Z,101468.50
2024-01-30T13:24:56.258Z,101465.06
2024-01-30T13:27:23.077Z,101477.13
2024-01-30T13:29:49.753Z,101470.25
2024-01-30T13:32:16.838Z,101473.66
2024-01-30T13:34:44.939Z,101472.75
2024-01-30T13:37:11.919Z,101479.63
2024-01-30T13:39:40.362Z,101482.13
2024-01-30T13:42:07.357Z,101488.75
2024-01-30T13:44:35.354Z,101494.69
2024-01-30T13:47:03.648Z,101501.53
2024-01-30T13:49:30.395Z,101497.16
2024-01-30T13:52:00.238Z,101507.69
2024-01-30T13:54:27.361Z,101517.91
2024-01-30T13:56:54.142Z,101511.13
2024-01-30T13:59:24.873Z,101505.84
2024-01-30T14:01:52.368Z,101507.47
2024-01-30T14:04:19.380Z,101511.94
2024-01-30T14:06:53.247Z,101515.53
2024-01-30T14:09:23.911Z,101526.69
2024-01-30T14:11:50.730Z,101517.22
2024-01-30T14:14:17.408Z,101517.34
2024-01-30T14:16:44.331Z,101512.84
2024-01-30T14:19:11.296Z,101514.59
2024-01-30T14:21:38.480Z,101522.44
2024-01-30T14:24:05.497Z,101528.34
2024-01-30T14:26:32.219Z,101535.03
2024-01-30T14:28:58.936Z,101534.94
2024-01-30T14:31:25.826Z,101532.25
2024-01-30T14:33:53.853Z,101528.59
2024-01-30T14:36:21.691Z,101524.34
2024-01-30T14:38:48.381Z,101526.19
2024-01-30T14:41:15.749Z,101532.97
2024-01-30T14:43:42.456Z,101536.44
2024-01-30T14:46:09.189Z,101533.19
2024-01-30T14:48:35.873Z,101534.09
2024-01-30T14:51:02.590Z,101538.34
2024-01-30T14:53:29.274Z,101535.59
2024-01-30T14:55:57.358Z,101533.91
2024-01-30T14:58:24.183Z,101542.44
2024-01-30T15:00:52.457Z,101544.25
2024-01-30T15:03:19.288Z,101542.56
2024-01-30T15:05:47.038Z,101544.31
2024-01-30T15:08:13.731Z,101551.19
2024-01-30T15:10:40.592Z,101548.66
2024-01-30T15:13:08.825Z,101563.31
2024-01-30T15:15:35.558Z,101564.03
2024-01-30T15:18:02.430Z,101555.47
2024-01-30T15:20:29.197Z,101562.31
2024-01-30T15:22:55.952Z,101579.59
2024-01-30T15:25:24.055Z,101584.00
2024-01-30T15:27:52.153Z,101590.00
2024-01-30T15:30:20.806Z,101603.78
2024-01-30T15:32:48.057Z,101610.56
2024-01-30T15:35:14.903Z,101605.47
2024-01-30T15:37:41.565Z,101613.25
2024-01-30T15:40:09.751Z,101613.22
2024-01-30T15:42:37.952Z,101619.31
2024-01-30T15:45:08.421Z,101620.75
2024-01-30T15:47:35.573Z,101627.41
2024-01-30T15:50:04.150Z,101627.47
2024-01-30T15:52:31.209Z,101625.47
2024-01-30T15:54:58.033Z,101622.06
2024-01-30T15:57:26.894Z,101627.16
2024-01-30T15:59:54.418Z,101634.84
2024-01-30T16:02:22.758Z,101628.00
2024-01-30T16:04:51.093Z,101634.13
2024-01-30T16:07:17.994Z,101627.22
2024-01-30T16:09:44.795Z,101634.72
2024-01-30T16:12:11.498Z,101642.25
2024-01-30T16:14:38.431Z,101645.44
2024-01-30T16:17:05.285Z,101632.16
2024-01-30T16:19:33.770Z,101629.28
2024-01-30T16:22:00.619Z,101627.28
2024-01-30T16:24:28.771Z,101629.59
2024-01-30T16:26:58.094Z,101628.44
2024-01-30T16:29:24.853Z,101629.84
2024-01-30T16:31:51.538Z,101633.00
2024-01-30T16:34:18.263Z,101626.75
2024-01-30T16:36:46.386Z,101637.69
2024-01-30T16:39:13.331Z,101639.97
2024-01-30T16:41:42.130Z,101645.75
2024-01-30T16:44:08.769Z,101642.84
2024-01-30T16:46:37.357Z,101649.53
2024-01-30T16:49:04.531Z,101660.44
2024-01-30T16:51:32.663Z,101661.94
2024-01-30T16:54:01.228Z,101664.19
2024-01-30T16:56:27.886Z,101663.97
2024-01-30T16:58:55.794Z,101657.69
2024-01-30T17:01:23.964Z,101657.41
2024-01-30T17:03:50.756Z,101667.53
2024-01-30T17:06:19.520Z,101671.56
2024-01-30T17:08:46.671Z,101673.06
2024-01-30T17:11:13.599Z,101678.88
2024-01-30T17:13:41.621Z,101686.47
2024-01-30T17:16:08.476Z,101690.53
2024-01-30T17:18:35.207Z,101700.69
2024-01-30T17:21:01.816Z,101697.81
2024-01-30T17:23:28.451Z,101699.31
2024-01-30T17:25:55.548Z,101701.75
2024-01-30T17:28:22.400Z,101707.56
2024-01-30T17:30:49.317Z,101708.31
2024-01-30T17:33:17.431Z,101709.88
2024-01-30T17:35:44.276Z,101712.22
2024-01-30T17:38:10.890Z,101717.22
2024-01-30T17:40:37.685Z,101718.78
2024-01-30T17:43:04.706Z,101731.47
2024-01-30T17:45:31.328Z,101736.38
2024-01-30T17:47:58.048Z,101736.19
2024-01-30T17:50:24.777Z,101737.63
2024-01-30T17:52:53.943Z,101745.13
2024-01-30T17:55:20.801Z,101748.31
2024-01-30T17:57:47.485Z,101748.81
2024-01-30T18:00:17.532Z,101753.63
2024-01-30T18:02:46.009Z,101761.84
2024-01-30T18:05:13.754Z,101762.41
2024-01-30T18:07:41.178Z,101768.13
2024-01-30T18:10:09.661Z,101766.22
2024-01-30T18:12:37.556Z,101765.03
2024-01-30T18:15:04.956Z,101769.13
2024-01-30T18:17:31.596Z,101768.84
2024-01-30T18:19:58.400Z,101776.38
2024-01-30T18:22:25.255Z,101779.66
2024-01-30T18:24:51.894Z,101783.75
2024-01-30T18:27:18.619Z,101782.00
2024-01-30T18:29:45.373Z,101790.50
2024-01-30T18:32:12.053Z,101789.53
2024-01-30T18:34:38.740Z,101799.69
2024-01-30T18:37:05.771Z,101800.44
2024-01-30T18:39:32.594Z,101796.91
2024-01-30T18:41:59.429Z,101801.88
2024-01-30T18:44:26.014Z,101800.13
2024-01-30T18:46:52.807Z,101806.00
2024-01-30T18:49:21.339Z,101819.59
2024-01-30T18:51:54.306Z,101825.44
2024-01-30T18:54:24.001Z,101829.47
2024-01-30T18:56:52.216Z,101833.44
2024-01-30T18:59:19.433Z,101831.69
2024-01-30T19:01:47.052Z,101840.03
2024-01-30T19:04:14.398Z,101846.78
2024-01-30T19:06:41.212Z,101857.56
2024-01-30T19:09:09.197Z,101871.88
2024-01-30T19:11:36.446Z,101873.34
2024-01-30T19:14:03.338Z,101882.50
2024-01-30T19:16:30.135Z,101884.22
2024-01-30T19:18:57.339Z,101890.13
2024-01-30T19:21:26.657Z,101893.50
2024-01-30T19:23:54.989Z,101884.03
2024-01-30T19:26:21.634Z,101888.19
2024-01-30T19:28:50.495Z,101882.09
2024-01-30T19:31:19.169Z,101897.56
2024-01-30T19:33:46.698Z,101892.28
2024-01-30T19:36:14.093Z,101895.56
2024-01-30T19:38:40.835Z,101894.56
2024-01-30T19:41:08.705Z,101901.31
2024-01-30T19:43:36.781Z,101897.75
2024-01-30T19:46:03.555Z,101916.50
2024-01-30T19:48:30.451Z,101898.47
2024-01-30T19:50:58.399Z,101898.28
2024-01-30T19:53:25.110Z,101900.78
2024-01-30T19:55:51.848Z,101896.38
2024-01-30T19:58:18.763Z,101897.09
2024-01-30T20:00:47.781Z,101898.66
2024-01-30T20:03:14.582Z,101895.94
2024-01-30T20:05:41.492Z,101895.69
2024-01-30T20:08:08.373Z,101894.59
2024-01-30T20:10:35.125Z,101896.13
2024-01-30T20:13:03.460Z,101895.84
2024-01-30T20:15:32.010Z,101899.03
2024-01-30T20:17:58.643Z,101898.06
2024-01-30T20:20:25.664Z,101895.34
2024-01-30T20:22:52.896Z,101896.13
2024-01-30T20:25:20.510Z,101887.47
2024-01-30T20:27:48.458Z,101893.38
2024-01-30T20:30:15.440Z,101900.09
2024-01-30T20:32:42.450Z,101906.81
2024-01-30T20:35:11.894Z,101909.09
2024-01-30T20:37:41.431Z,101906.25
2024-01-30T20:40:08.831Z,101900.97
2024-01-30T20:42:36.799Z,101901.59
2024-01-30T20:45:05.087Z,101896.19
2024-01-30T20:47:31.934Z,101899.47
2024-01-30T20:49:58.760Z,101897.59
2024-01-30T20:52:25.568Z,101906.97
2024-01-30T20:54:52.754Z,101901.66
2024-01-30T20:57:19.481Z,101907.66
2024-01-30T20:59:47.392Z,101906.78
2024-01-30T21:02:14.144Z,101901.66
2024-01-30T21:04:42.246Z,101910.13
2024-01-30T21:07:08.963Z,101909.22
2024-01-30T21:09:35.616Z,101908.38
2024-01-30T21:12:02.339Z,101908.19
2024-01-30T21:14:29.346Z,101912.31
2024-01-30T21:16:56.006Z,101925.81
2024-01-30T21:19:24.098Z,101924.91
2024-01-30T21:21:50.859Z,101924.75
2024-01-30T21:24:17.485Z,101933.19
2024-01-30T21:26:44.337Z,101929.78
2024-01-30T21:29:10.946Z,101937.47
2024-01-30T21:31:37.659Z,101929.59
2024-01-30T21:34:04.658Z,101937.97
2024-01-30T21:36:32.728Z,101942.00
2024-01-30T21:38:59.360Z,101936.69
2024-01-30T21:41:28.569Z,101938.28
2024-01-30T21:43:55.211Z,101944.09
2024-01-30T21:46:26.832Z,101945.66
2024-01-30T21:48:53.869Z,101946.28
2024-01-30T21:51:21.216Z,101949.53
2024-01-30T21:53:48.145Z,101949.31
2024-01-30T21:56:14.899Z,101945.81
2024-01-30T21:58:41.612Z,101948.28
2024-01-30T22:01:08.501Z,101961.06
2024-01-30T22:03:35.469Z,101958.50
2024-01-30T22:06:02.228Z,101959.38
2024-01-30T22:08:28.852Z,101955.94
2024-01-30T22:10:56.929Z,101970.38
2024-01-30T22:13:25.577Z,101966.94
2024-01-30T22:15:52.380Z,101966.88
2024-01-30T22:18:19.156Z,101961.66
2024-01-30T22:20:45.936Z,101949.63
2024-01-30T22:23:13.200Z,101949.63
2024-01-30T22:25:40.128Z,101932.53
2024-01-30T22:28:07.203Z,101925.47
2024-01-30T22:30:34.010Z,101928.44
2024-01-30T22:33:00.881Z,101927.25
2024-01-30T22:35:27.679Z,101931.38
2024-01-30T22:37:54.654Z,101938.09
2024-01-30T22:40:21.304Z,101941.25
2024-01-30T22:42:49.236Z,101932.22
2024-01-30T22:45:15.923Z,101937.13
2024-01-30T22:47:42.611Z,101943.59
2024-01-30T22:50:09.639Z,101942.53
2024-01-30T22:52:36.532Z,101944.00
2024-01-30T22:55:03.404Z,101941.25
2024-01-30T22:57:33.162Z,101936.13
2024-01-30T23:00:02.333Z,101932.78
2024-01-30T23:02:29.098Z,101941.44
2024-01-30T23:04:55.812Z,101933.00
2024-01-30T23:07:23.923Z,101932.31
2024-01-30T23:09:50.524Z,101928.09
2024-01-30T23:12:17.136Z,101929.75
2024-01-30T23:14:45.873Z,101929.66
2024-01-30T23:17:12.573Z,101931.03
2024-01-30T23:19:39.166Z,101935.94
2024-01-30T23:22:07.150Z,101940.84
2024-01-30T23:24:33.901Z,101945.75
2024-01-30T23:27:01.763Z,101938.66
2024-01-30T23:29:28.405Z,101945.16
2024-01-30T23:31:56.360Z,101944.84
2024-01-30T23:34:23.203Z,101946.53
2024-01-30T23:36:52.229Z,101944.97
2024-01-30T23:39:20.123Z,101934.75
2024-01-30T23:41:46.820Z,101920.41
2024-01-30T23:44:13.622Z,101916.28
2024-01-30T23:46:40.530Z,101918.72
2024-01-30T23:49:07.300Z,101917.88
2024-01-30T23:51:33.962Z,101922.06
2024-01-30T23:54:01.804Z,101928.94
2024-01-30T23:56:28.447Z,101912.94
2024-01-30T23:58:56.391Z,101921.59
